Hlavní strana
METAR-TAF:

METAR-TAF

Letiště :

Tadoule Lake, Manitoba, Kanada

zeměpisná šířka: 58-42-22N, zeměpisná délka: 98-30-44W, výška: 281 m

Aktuální stav počasí

Zpráva byla vytvořena před 29 minutami, v 22:00 UTC
Jihojihovýchodní vítr 9 kt
Teplota -7°C
Vlhkost vzduchu 73%
Tlak 1013 hPa
Viditelnost: 14.5 km
Oblačno až skoro zataženo ve výšce 10000 ft
Oblačno až skoro zataženo ve výšce 13000 ft

METAR: CYBQ 172200Z AUTO 15009KT 9SM BKN100 BKN130 M07/M11 A2991 RMK SLP156

Čas: 17:29 (22:29 UTC)


TAF: chybějící

Stav a předpovědi počasí z více než 4 000 letišť (zprávy METAR a TAF).

Červené a žluté tečky na mapě představují dostupné meteorologické stanice.

Když kurzor umístíte na tečku, zobrazí se název stanice.

Pak kliknutím zobrazíte stav a předpověď počasí.

Chcete-li změnit mapu, kliknutím na zelené tlačítko se znaménkem +mapu přiblížíte, kliknutím na zelené tlačítko se znaménkem – mapu oddálíte a kliknutím na zelené šipky přejdete na sousední mapy.


METAR-TAF: